Time;durP1;ratioP1;P1;durP2;ratioP2;P2;SDS_P1;SDS_P2;PMS_P1;PMS_P2;Temp;Humidity;BMP_temperature;BMP_pressure;BME280_temperature;BME280_humidity;BME280_pressure;Samples;Min_cycle;Max_cycle;Signal;HPM_P1;HPM_P2
2022/07/22 00:01:45;;;;;;;34.05;25.77;;;;;;;17.34;100.00;156876.06;5028119;28;20033;-74
2022/07/22 00:04:11;;;;;;;35.75;25.90;;;;;;;17.34;100.00;156877.34;5048140;28;20581;-74
2022/07/22 00:06:37;;;;;;;33.47;26.33;;;;;;;17.33;100.00;156874.78;5022195;28;20036;-74
2022/07/22 00:09:04;;;;;;;33.67;24.25;;;;;;;17.36;100.00;156882.50;5051573;28;20068;-74
2022/07/22 00:11:29;;;;;;;37.60;26.73;;;;;;;17.35;100.00;156878.63;5022950;28;20044;-73
2022/07/22 00:13:55;;;;;;;37.33;27.92;;;;;;;17.37;100.00;156883.81;5049922;28;20036;-74
2022/07/22 00:16:21;;;;;;;35.22;25.75;;;;;;;17.31;100.00;156870.91;5048815;28;20041;-74
2022/07/22 00:18:46;;;;;;;36.75;27.52;;;;;;;17.37;100.00;156883.81;5047475;28;20029;-74
2022/07/22 00:21:12;;;;;;;37.30;28.50;;;;;;;17.36;100.00;156881.22;5038319;28;20151;-75
2022/07/22 00:23:38;;;;;;;42.67;30.65;;;;;;;17.38;100.00;156887.63;5020009;28;20095;-74
2022/07/22 00:26:04;;;;;;;42.72;30.15;;;;;;;17.39;100.00;156890.22;5042841;28;20056;-75
2022/07/22 00:28:30;;;;;;;38.83;28.95;;;;;;;17.38;100.00;156887.63;5052009;28;20043;-75
2022/07/22 00:30:56;;;;;;;46.58;29.95;;;;;;;17.36;100.00;156882.50;5051829;28;20036;-75
2022/07/22 00:33:22;;;;;;;42.88;31.75;;;;;;;17.40;100.00;156892.78;5054087;28;20106;-75
2022/07/22 00:35:49;;;;;;;42.53;33.05;;;;;;;17.43;100.00;156899.25;5056206;28;20035;-75
2022/07/22 00:38:15;;;;;;;48.85;30.95;;;;;;;17.43;100.00;156899.25;5058501;28;20036;-73
2022/07/22 00:40:41;;;;;;;37.85;26.42;;;;;;;17.49;100.00;156915.97;5034396;28;20098;-75
2022/07/22 00:43:07;;;;;;;30.95;20.52;;;;;;;17.43;100.00;156899.25;5053773;28;20182;-76
2022/07/22 00:45:32;;;;;;;25.63;19.20;;;;;;;17.35;100.00;156878.63;5041386;28;20560;-75
2022/07/22 00:47:58;;;;;;;28.33;15.30;;;;;;;17.19;100.00;156838.69;5034276;28;20044;-75
2022/07/22 00:50:24;;;;;;;24.40;14.65;;;;;;;17.15;100.00;156828.41;5033767;28;20777;-74
2022/07/22 00:52:50;;;;;;;20.85;13.48;;;;;;;17.09;100.00;156814.25;5041952;28;20025;-73
2022/07/22 00:55:16;;;;;;;21.08;13.60;;;;;;;16.97;100.00;156783.31;5035562;28;20025;-73
2022/07/22 00:57:42;;;;;;;22.02;12.65;;;;;;;16.96;100.00;156780.75;5051022;28;20037;-73
2022/07/22 01:00:13;;;;;;;16.83;10.55;;;;;;;16.94;100.00;156776.88;5056040;28;20037;-76
2022/07/22 01:02:39;;;;;;;17.20;9.80;;;;;;;16.88;100.00;156762.72;5062897;28;20072;-73
2022/07/22 01:05:05;;;;;;;13.02;8.38;;;;;;;16.81;100.00;156744.63;5055326;28;20108;-74
2022/07/22 01:07:31;;;;;;;15.18;9.07;;;;;;;16.75;100.00;156729.19;5023509;28;20405;-74
2022/07/22 01:09:56;;;;;;;12.20;8.10;;;;;;;16.71;100.00;156720.16;5040214;28;20045;-74
2022/07/22 01:12:22;;;;;;;12.45;8.23;;;;;;;16.68;100.00;156712.44;5057047;28;20040;-76
2022/07/22 01:14:48;;;;;;;10.35;7.90;;;;;;;16.67;100.00;156709.88;5033442;28;20561;-73
2022/07/22 01:17:14;;;;;;;12.65;8.40;;;;;;;16.65;100.00;156704.72;5036232;28;20133;-74
2022/07/22 01:19:39;;;;;;;15.23;9.07;;;;;;;16.66;100.00;156706.00;5038887;28;20056;-73
2022/07/22 01:22:06;;;;;;;9.65;7.57;;;;;;;16.61;100.00;156693.13;5056560;28;20044;-72
2022/07/22 01:24:32;;;;;;;11.00;7.38;;;;;;;16.59;100.00;156687.97;5055568;28;20044;-73
2022/07/22 01:26:58;;;;;;;8.57;6.40;;;;;;;16.48;100.00;156660.91;5044304;28;20029;-73
2022/07/22 01:29:24;;;;;;;7.90;5.20;;;;;;;16.37;100.00;156632.59;5027342;28;20557;-74
2022/07/22 01:31:51;;;;;;;7.10;5.20;;;;;;;16.37;100.00;156632.59;5048982;28;20037;-76
2022/07/22 01:34:17;;;;;;;7.28;5.32;;;;;;;16.30;100.00;156615.88;5036338;28;20112;-75
2022/07/22 01:36:42;;;;;;;6.60;5.93;;;;;;;16.24;100.00;156600.44;5037952;28;20268;-76
2022/07/22 01:39:08;;;;;;;9.55;7.30;;;;;;;16.23;100.00;156599.13;5050283;28;20032;-76
2022/07/22 01:41:34;;;;;;;10.65;9.30;;;;;;;16.11;100.00;156569.53;5038647;28;20055;-75
2022/07/22 01:44:00;;;;;;;9.90;8.90;;;;;;;16.07;100.00;156559.25;5051282;28;20037;-74
2022/07/22 01:46:25;;;;;;;10.20;9.20;;;;;;;16.07;100.00;156559.25;5053316;28;20041;-76
2022/07/22 01:48:52;;;;;;;11.85;9.02;;;;;;;15.98;100.00;156534.78;5037588;28;20037;-75
2022/07/22 01:51:18;;;;;;;11.80;8.90;;;;;;;15.94;100.00;156525.78;5023672;28;20049;-76
2022/07/22 01:53:45;;;;;;;11.88;9.38;;;;;;;15.93;100.00;156523.19;5057382;28;20099;-76
2022/07/22 01:56:11;;;;;;;13.40;10.13;;;;;;;15.80;100.00;156491.00;5050605;28;20494;-76
2022/07/22 01:58:44;;;;;;;15.23;10.10;;;;;;;15.76;100.00;156482.03;5039597;28;20041;-74
2022/07/22 02:01:10;;;;;;;17.42;10.30;;;;;;;15.76;100.00;156482.03;5058960;28;20091;-76
2022/07/22 02:03:36;;;;;;;16.85;10.27;;;;;;;15.66;100.00;156454.94;5041424;28;20377;-73
2022/07/22 02:06:05;;;;;;;12.50;10.88;;;;;;;15.68;100.00;156461.34;5035630;28;20049;-77
2022/07/22 02:08:31;;;;;;;16.00;10.23;;;;;;;15.58;100.00;156436.91;5021912;28;20090;-74
2022/07/22 02:11:09;;;;;;;17.20;11.80;;;;;;;15.55;100.00;156429.19;5052525;28;20108;-76
2022/07/22 02:13:44;;;;;;;24.10;12.50;;;;;;;15.54;100.00;156425.34;5039039;28;20029;-76
2022/07/22 02:16:10;;;;;;;28.10;12.20;;;;;;;15.57;100.00;156434.31;5036861;28;20040;-74
2022/07/22 02:18:38;;;;;;;18.85;9.35;;;;;;;15.40;100.00;156389.31;5020899;28;20048;-75
2022/07/22 02:21:03;;;;;;;18.80;9.48;;;;;;;15.39;100.00;156388.03;5048047;28;20044;-75
2022/07/22 02:23:29;;;;;;;19.15;8.77;;;;;;;15.32;100.00;156371.28;5035772;28;20511;-74
2022/07/22 02:25:55;;;;;;;19.10;8.43;;;;;;;15.31;100.00;156368.75;5033050;28;20108;-73
2022/07/22 02:28:20;;;;;;;13.98;6.57;;;;;;;15.27;100.00;156357.13;5056852;28;20032;-74
2022/07/22 02:30:46;;;;;;;18.55;6.53;;;;;;;15.24;100.00;156350.72;5047391;28;20068;-76
2022/07/22 02:33:12;;;;;;;11.35;5.53;;;;;;;15.21;100.00;156342.97;5043476;28;20040;-76
2022/07/22 02:35:39;;;;;;;12.75;5.03;;;;;;;15.23;100.00;156346.84;5029205;28;20037;-77
2022/07/22 02:38:05;;;;;;;11.15;4.70;;;;;;;15.19;100.00;156337.84;5037827;28;20508;-76
2022/07/22 02:40:31;;;;;;;11.85;4.40;;;;;;;15.25;100.00;156353.25;5033225;28;20041;-76
2022/07/22 02:42:57;;;;;;;12.10;4.40;;;;;;;15.15;100.00;156327.56;5031778;28;20041;-76
2022/07/22 02:45:23;;;;;;;14.93;4.65;;;;;;;15.18;100.00;156335.25;5030937;28;20056;-73
2022/07/22 02:47:51;;;;;;;14.02;5.38;;;;;;;15.16;100.00;156331.41;5048313;28;20067;-75
2022/07/22 02:50:18;;;;;;;11.82;6.05;;;;;;;15.11;100.00;156317.28;5026104;28;20079;-75
2022/07/22 02:52:44;;;;;;;14.93;6.43;;;;;;;15.13;100.00;156322.41;5046876;28;20033;-75
2022/07/22 02:55:11;;;;;;;13.18;7.45;;;;;;;15.08;100.00;156310.81;5030820;28;20053;-75
2022/07/22 02:57:38;;;;;;;16.98;7.38;;;;;;;15.09;100.00;156313.41;5029517;28;20044;-76
2022/07/22 03:00:08;;;;;;;16.13;7.40;;;;;;;15.14;100.00;156324.97;5032217;28;20050;-76
2022/07/22 03:02:36;;;;;;;19.25;8.00;;;;;;;15.13;100.00;156323.69;5021449;28;20036;-77
2022/07/22 03:05:03;;;;;;;22.02;7.50;;;;;;;15.15;100.00;156328.81;5037708;28;20072;-75
2022/07/22 03:07:30;;;;;;;16.27;6.60;;;;;;;15.14;100.00;156326.28;5033193;28;20054;-74
2022/07/22 03:09:56;;;;;;;15.00;6.80;;;;;;;15.14;100.00;156324.97;5035840;28;20029;-76
2022/07/22 03:12:22;;;;;;;14.10;5.80;;;;;;;15.07;100.00;156308.25;5057340;28;20117;-76
2022/07/22 03:14:48;;;;;;;14.65;6.28;;;;;;;15.08;100.00;156309.53;5040073;28;20074;-74
2022/07/22 03:17:14;;;;;;;15.50;5.78;;;;;;;15.08;100.00;156309.53;5027583;28;20067;-74
2022/07/22 03:19:40;;;;;;;17.33;6.47;;;;;;;15.04;100.00;156299.25;5044956;28;20028;-73
2022/07/22 03:22:06;;;;;;;12.77;5.97;;;;;;;15.04;100.00;156299.25;5020533;28;20501;-75
2022/07/22 03:24:32;;;;;;;14.60;6.05;;;;;;;15.06;100.00;156304.38;5033224;28;20147;-77
2022/07/22 03:26:59;;;;;;;19.33;6.78;;;;;;;15.04;100.00;156299.25;5043136;28;20064;-76
2022/07/22 03:29:27;;;;;;;20.73;7.30;;;;;;;15.11;100.00;156317.28;5053303;28;20509;-76
2022/07/22 03:31:53;;;;;;;17.00;7.80;;;;;;;15.06;100.00;156304.38;5034747;28;20032;-76
2022/07/22 03:34:31;;;;;;;15.60;7.07;;;;;;;15.08;100.00;156309.53;5056444;28;20032;-76
2022/07/22 03:37:04;;;;;;;17.35;6.57;;;;;;;15.02;100.00;156294.09;5021585;28;20646;-76
2022/07/22 03:39:29;;;;;;;19.95;6.90;;;;;;;15.02;100.00;156294.09;5050702;28;20033;-75
2022/07/22 03:41:55;;;;;;;13.05;5.70;;;;;;;14.99;100.00;156288.97;5035134;28;20040;-76
2022/07/22 03:44:21;;;;;;;17.00;5.60;;;;;;;15.06;100.00;156305.66;5019783;28;20512;-75
2022/07/22 03:46:47;;;;;;;12.82;4.65;;;;;;;15.05;100.00;156303.13;5020477;28;20033;-75
2022/07/22 03:49:19;;;;;;;13.45;4.63;;;;;;;15.03;100.00;156297.97;5018578;28;20051;-76
2022/07/22 03:51:45;;;;;;;12.88;3.92;;;;;;;15.08;100.00;156310.81;5021784;28;20067;-76
2022/07/22 03:54:11;;;;;;;10.90;3.30;;;;;;;15.08;100.00;156310.81;5036546;28;20425;-76
2022/07/22 03:56:41;;;;;;;11.77;3.13;;;;;;;15.08;100.00;156309.53;5035258;28;20036;-74
2022/07/22 03:59:07;;;;;;;11.68;3.22;;;;;;;15.03;100.00;156297.97;5051182;28;20477;-75
2022/07/22 04:01:33;;;;;;;9.40;2.83;;;;;;;15.07;100.00;156306.94;5048550;28;20041;-76
2022/07/22 04:03:59;;;;;;;11.35;2.80;;;;;;;15.08;100.00;156310.81;5030298;28;20486;-75
2022/07/22 04:06:28;;;;;;;13.57;2.90;;;;;;;15.03;100.00;156296.66;5031695;28;20136;-76
2022/07/22 04:09:02;;;;;;;12.23;2.97;;;;;;;15.06;100.00;156305.66;5057372;28;20048;-78
2022/07/22 04:11:28;;;;;;;9.05;2.72;;;;;;;14.98;100.00;156286.38;5048138;28;20059;-76
2022/07/22 04:13:54;;;;;;;7.35;2.60;;;;;;;15.01;100.00;156292.78;5024526;28;20037;-76
2022/07/22 04:16:20;;;;;;;11.60;2.90;;;;;;;15.05;100.00;156301.78;5036983;28;20033;-73
2022/07/22 04:18:56;;;;;;;10.10;2.20;;;;;;;15.06;100.00;156305.66;5045083;28;20032;-75
2022/07/22 04:21:45;;;;;;;14.38;2.80;;;;;;;14.97;100.00;156283.81;5041399;28;20091;-76
2022/07/22 04:24:11;;;;;;;10.15;2.40;;;;;;;14.93;100.00;156272.22;5021711;28;20037;-75
2022/07/22 04:26:37;;;;;;;10.25;2.50;;;;;;;14.94;100.00;156276.09;5038217;28;20041;-77
2022/07/22 04:29:04;;;;;;;13.73;2.47;;;;;;;14.99;100.00;156287.63;5033921;28;20044;-76
2022/07/22 04:31:30;;;;;;;8.55;2.70;;;;;;;14.96;100.00;156281.22;5020723;28;20455;-76
2022/07/22 04:34:03;;;;;;;7.57;2.33;;;;;;;14.93;100.00;156272.22;5035453;28;20025;-77
2022/07/22 04:36:28;;;;;;;4.97;2.10;;;;;;;15.02;100.00;156294.09;5041860;28;20029;-75
2022/07/22 04:38:54;;;;;;;9.13;2.17;;;;;;;14.92;100.00;156269.66;5020114;28;20087;-77
2022/07/22 04:41:20;;;;;;;9.50;2.55;;;;;;;14.97;100.00;156282.50;5057113;28;20588;-75
2022/07/22 04:43:48;;;;;;;10.18;2.17;;;;;;;14.92;100.00;156269.66;5037710;28;20033;-73
2022/07/22 04:46:13;;;;;;;4.22;2.10;;;;;;;14.97;100.00;156282.50;5034609;28;20565;-73
2022/07/22 04:48:42;;;;;;;7.80;2.40;;;;;;;14.93;100.00;156272.22;5054863;28;20687;-73
2022/07/22 04:51:08;;;;;;;9.93;2.47;;;;;;;14.91;100.00;156268.34;5030839;28;20035;-73
2022/07/22 04:53:34;;;;;;;5.38;2.83;;;;;;;14.93;100.00;156272.22;5037679;28;20453;-73
2022/07/22 04:56:00;;;;;;;7.53;3.40;;;;;;;14.88;100.00;156260.66;5052148;28;20052;-73
2022/07/22 04:58:25;;;;;;;6.55;4.03;;;;;;;14.94;100.00;156274.81;5051107;28;20028;-74
2022/07/22 05:00:51;;;;;;;10.07;5.20;;;;;;;14.92;100.00;156269.66;5038235;28;20037;-73
2022/07/22 05:03:18;;;;;;;9.80;5.82;;;;;;;14.91;100.00;156267.06;5034632;28;20055;-74
2022/07/22 05:05:43;;;;;;;12.85;6.88;;;;;;;14.90;100.00;156264.47;5051623;28;20063;-74
2022/07/22 05:08:10;;;;;;;13.00;7.18;;;;;;;14.89;100.00;156261.94;5032426;28;20036;-73
2022/07/22 05:10:37;;;;;;;15.05;7.15;;;;;;;14.96;100.00;156281.22;5042160;28;20090;-73
2022/07/22 05:13:03;;;;;;;18.58;7.40;;;;;;;15.01;100.00;156292.78;5025132;28;20046;-73
2022/07/22 05:15:31;;;;;;;17.27;6.55;;;;;;;15.09;100.00;156312.13;5044366;28;20090;-74
2022/07/22 05:17:57;;;;;;;13.88;5.78;;;;;;;15.07;100.00;156306.94;5054571;28;20040;-73
2022/07/22 05:20:27;;;;;;;18.75;6.28;;;;;;;15.07;100.00;156308.25;5018856;28;20128;-75
2022/07/22 05:22:52;;;;;;;15.10;6.10;;;;;;;15.10;100.00;156314.69;5022027;28;20041;-75
2022/07/22 05:25:24;;;;;;;11.88;6.18;;;;;;;15.19;100.00;156337.84;5040593;28;20439;-74
2022/07/22 05:27:55;;;;;;;11.88;6.00;;;;;;;15.12;100.00;156321.09;5057105;28;20043;-74
2022/07/22 05:30:26;;;;;;;13.18;5.40;;;;;;;15.11;100.00;156318.53;5021915;22;20038;-75
2022/07/22 05:32:52;;;;;;;17.92;5.70;;;;;;;15.10;100.00;156314.69;5002230;28;20076;-74
2022/07/22 05:35:29;;;;;;;16.75;5.80;;;;;;;15.04;100.00;156300.53;4973035;28;20566;-75
2022/07/22 05:37:56;;;;;;;16.23;6.53;;;;;;;14.99;100.00;156288.97;4986482;28;20030;-74
2022/07/22 05:40:23;;;;;;;14.18;6.38;;;;;;;14.96;100.00;156281.22;4984411;28;20060;-74
2022/07/22 05:42:49;;;;;;;16.40;6.32;;;;;;;14.90;100.00;156265.81;4982273;28;20043;-74
2022/07/22 05:45:14;;;;;;;12.80;5.93;;;;;;;14.99;100.00;156287.63;4986217;28;20038;-73
2022/07/22 05:47:41;;;;;;;15.77;6.25;;;;;;;14.94;100.00;156274.81;4982999;28;20038;-73
2022/07/22 05:50:07;;;;;;;10.43;5.03;;;;;;;15.02;100.00;156294.09;4999919;28;20041;-74
2022/07/22 05:52:38;;;;;;;10.82;5.45;;;;;;;14.97;100.00;156282.50;5001621;28;20026;-74
2022/07/22 05:55:05;;;;;;;9.25;4.90;;;;;;;15.05;100.00;156303.13;4973609;28;20050;-74
2022/07/22 05:57:31;;;;;;;15.30;5.20;;;;;;;15.06;100.00;156304.38;4973614;28;20030;-73
2022/07/22 05:59:57;;;;;;;15.65;5.35;;;;;;;15.09;100.00;156313.41;4995664;28;20495;-74
2022/07/22 06:02:23;;;;;;;16.17;5.15;;;;;;;15.12;100.00;156319.81;5001218;28;20060;-75
2022/07/22 06:04:49;;;;;;;11.18;4.55;;;;;;;15.16;100.00;156331.41;4983003;28;20037;-73
2022/07/22 06:07:17;;;;;;;11.75;4.65;;;;;;;15.17;100.00;156333.97;4982622;28;20638;-74
2022/07/22 06:09:46;;;;;;;14.13;4.68;;;;;;;15.30;100.00;156364.88;4985401;28;20042;-74
2022/07/22 06:12:13;;;;;;;15.70;4.53;;;;;;;15.36;100.00;156381.56;4983082;28;20041;-73
2022/07/22 06:14:38;;;;;;;11.05;3.90;;;;;;;15.41;100.00;156393.19;4985481;28;20510;-74
2022/07/22 06:17:04;;;;;;;11.45;3.90;;;;;;;15.42;100.00;156395.72;4983499;28;20077;-74
2022/07/22 06:19:31;;;;;;;18.33;3.92;;;;;;;15.51;100.00;156417.63;4968379;28;20111;-76
2022/07/22 06:22:00;;;;;;;13.98;4.10;;;;;;;15.57;100.00;156433.03;4969582;28;20038;-76
2022/07/22 06:24:26;;;;;;;18.48;4.57;;;;;;;15.67;100.00;156457.47;5002290;28;20113;-75
2022/07/22 06:26:53;;;;;;;10.63;4.05;;;;;;;15.76;100.00;156480.72;4976062;28;20088;-75
2022/07/22 06:29:20;;;;;;;12.23;4.25;;;;;;;15.88;100.00;156510.28;5001157;28;20038;-75
2022/07/22 06:31:45;;;;;;;13.30;3.80;;;;;;;15.87;100.00;156509.03;4981788;28;20459;-76
2022/07/22 06:34:11;;;;;;;16.73;4.22;;;;;;;15.93;100.00;156524.44;4982053;28;20046;-75
2022/07/22 06:36:52;;;;;;;17.58;4.72;;;;;;;15.95;100.00;156529.66;4968057;28;20057;-74
2022/07/22 06:39:17;;;;;;;14.48;4.05;;;;;;;15.91;100.00;156519.31;4983994;28;20066;-74
2022/07/22 06:42:08;;;;;;;11.60;3.67;;;;;;;16.07;100.00;156557.97;5002603;28;20558;-76
2022/07/22 06:44:53;;;;;;;16.02;4.07;;;;;;;16.18;100.00;156584.97;4997701;28;20038;-75
2022/07/22 06:47:26;;;;;;;19.48;4.47;;;;;;;16.46;100.00;156655.78;4981022;28;20046;-74
2022/07/22 06:49:51;;;;;;;17.45;3.90;;;;;;;16.65;100.00;156704.72;5003838;28;20053;-75
2022/07/22 06:52:17;;;;;;;14.43;3.90;;;;;;;16.72;100.00;156721.44;4993116;28;20038;-75
2022/07/22 06:54:43;;;;;;;16.73;3.95;;;;;;;16.77;100.00;156733.06;5009617;28;20043;-73
2022/07/22 06:57:13;;;;;;;17.40;4.03;;;;;;;16.68;100.00;156712.44;4994694;28;20034;-74
2022/07/22 06:59:39;;;;;;;13.55;3.72;;;;;;;16.72;100.00;156721.44;4989116;28;20053;-74
2022/07/22 07:02:08;;;;;;;16.88;3.50;;;;;;;16.80;100.00;156742.09;5005931;28;20037;-76
2022/07/22 07:04:34;;;;;;;10.88;3.28;;;;;;;16.78;100.00;156736.88;4995827;28;20042;-77
2022/07/22 07:07:00;;;;;;;14.57;3.78;;;;;;;16.76;100.00;156730.47;4989184;28;20412;-75
2022/07/22 07:09:32;;;;;;;15.35;3.63;;;;;;;16.68;100.00;156711.16;4989665;28;20093;-74
2022/07/22 07:12:20;;;;;;;22.70;3.47;;;;;;;16.44;100.00;156650.63;5005024;28;20041;-74
2022/07/22 07:15:18;;;;;;;13.05;2.95;;;;;;;16.49;100.00;156663.50;5004032;28;20038;-74
2022/07/22 07:17:44;;;;;;;13.88;3.13;;;;;;;16.64;100.00;156700.84;4987894;28;20061;-74
2022/07/22 07:20:14;;;;;;;15.25;3.60;;;;;;;16.62;100.00;156695.72;4970025;28;20133;-74
2022/07/22 07:22:39;;;;;;;10.90;2.80;;;;;;;16.70;100.00;156717.56;4971190;28;20447;-74
2022/07/22 07:25:07;;;;;;;14.30;3.95;;;;;;;16.91;100.00;156770.47;4981869;28;20073;-74
2022/07/22 07:27:34;;;;;;;12.18;2.67;;;;;;;17.04;100.00;156801.34;4984402;28;20466;-73
2022/07/22 07:30:02;;;;;;;12.23;2.60;;;;;;;17.04;100.00;156802.63;4979389;28;20049;-73
2022/07/22 07:32:28;;;;;;;13.13;3.05;;;;;;;16.89;100.00;156764.00;4987042;28;20038;-75
2022/07/22 07:34:54;;;;;;;13.43;3.00;;;;;;;16.91;100.00;156769.13;4978661;28;20037;-75
2022/07/22 07:37:19;;;;;;;14.15;3.38;;;;;;;16.86;100.00;156756.28;4993133;28;20033;-76
2022/07/22 07:39:45;;;;;;;15.73;2.92;;;;;;;16.80;100.00;156742.09;4985154;28;20023;-75
2022/07/22 07:42:11;;;;;;;13.73;2.92;;;;;;;16.80;100.00;156742.09;4976650;28;20034;-75
2022/07/22 07:44:36;;;;;;;14.88;3.35;;;;;;;16.77;100.00;156734.34;4979410;28;20143;-75
2022/07/22 07:47:03;;;;;;;12.00;2.97;;;;;;;16.79;100.00;156738.22;4975408;28;20112;-75
2022/07/22 07:49:29;;;;;;;21.55;3.35;;;;;;;16.77;100.00;156733.06;4983693;28;20057;-75
2022/07/22 07:51:54;;;;;;;19.55;3.83;;;;;;;16.82;100.00;156745.91;4997738;28;20487;-75
2022/07/22 07:54:20;;;;;;;11.27;2.78;;;;;;;16.80;100.00;156740.75;5001112;28;20125;-75
2022/07/22 07:56:46;;;;;;;9.50;2.75;;;;;;;16.77;100.00;156733.06;4973478;28;20526;-75
2022/07/22 07:59:13;;;;;;;11.68;3.15;;;;;;;16.67;100.00;156708.56;4989964;28;20372;-74
2022/07/22 08:01:40;;;;;;;11.13;2.45;;;;;;;16.63;100.00;156699.59;4988517;28;20045;-75
2022/07/22 08:04:05;;;;;;;9.48;2.80;;;;;;;16.69;100.00;156715.03;4967653;28;20045;-76
2022/07/22 08:06:31;;;;;;;15.95;2.80;;;;;;;16.81;100.00;156744.63;4980395;28;20060;-76
2022/07/22 08:08:57;;;;;;;11.73;2.53;;;;;;;16.95;100.00;156779.44;5000286;28;20039;-77
2022/07/22 08:11:33;;;;;;;15.02;2.67;;;;;;;17.03;100.00;156800.06;4966597;28;20046;-76
2022/07/22 08:14:17;;;;;;;14.05;2.80;;;;;;;17.16;100.00;156830.97;4986277;28;20719;-76
2022/07/22 08:17:02;;;;;;;12.07;2.83;;;;;;;17.27;100.00;156859.31;4978424;28;20026;-75
2022/07/22 08:19:28;;;;;;;11.20;2.20;;;;;;;17.31;100.00;156869.66;4988042;28;20674;-75
2022/07/22 08:21:53;;;;;;;14.85;2.70;;;;;;;17.32;100.00;156872.19;4989201;28;20085;-76
2022/07/22 08:24:25;;;;;;;14.02;2.45;;;;;;;17.36;100.00;156882.50;5004784;28;20060;-76
2022/07/22 08:26:50;;;;;;;12.25;2.40;;;;;;;17.46;100.00;156908.28;4987620;28;20042;-76
2022/07/22 08:29:16;;;;;;;13.60;2.50;;;;;;;17.58;100.00;156937.91;4974584;28;20044;-76
2022/07/22 08:31:43;;;;;;;9.38;2.40;;;;;;;17.69;100.00;156966.25;4990334;28;20081;-78
2022/07/22 08:34:11;;;;;;;17.27;3.47;;;;;;;17.85;100.00;157006.22;4989856;28;20053;-76
2022/07/22 08:36:38;;;;;;;14.32;2.35;;;;;;;17.95;100.00;157030.75;4988474;28;20109;-76
2022/07/22 08:39:04;;;;;;;15.05;2.92;;;;;;;17.79;100.00;156990.72;5004408;28;20050;-78
2022/07/22 08:41:41;;;;;;;16.83;2.90;;;;;;;17.74;100.00;156977.81;4958940;28;20039;-77
2022/07/22 08:44:09;;;;;;;13.52;2.40;;;;;;;17.68;100.00;156962.38;4984379;28;20038;-77
2022/07/22 08:46:36;;;;;;;13.70;2.75;;;;;;;17.55;100.00;156928.88;5003601;28;20085;-74
2022/07/22 08:49:17;;;;;;;13.48;2.63;;;;;;;17.25;100.00;156855.47;5001464;28;20030;-77
2022/07/22 08:51:51;;;;;;;15.60;2.25;;;;;;;17.27;100.00;156860.63;4987540;28;20046;-76
2022/07/22 08:54:19;;;;;;;11.32;2.25;;;;;;;17.18;100.00;156836.09;4986572;28;20039;-76
2022/07/22 08:56:47;;;;;;;11.70;2.55;;;;;;;17.39;100.00;156890.22;5004288;28;20140;-77
2022/07/22 08:59:13;;;;;;;15.13;2.50;;;;;;;17.48;100.00;156913.44;4987416;28;20038;-76
2022/07/22 09:02:01;;;;;;;8.95;2.20;;;;;;;17.63;100.00;156950.78;4986659;28;20077;-74
2022/07/22 09:04:27;;;;;;;14.35;2.70;;;;;;;17.72;100.00;156972.66;5002951;28;20088;-74
2022/07/22 09:06:53;;;;;;;14.23;2.97;;;;;;;17.97;100.00;157034.56;4985630;28;20831;-78
2022/07/22 09:09:32;;;;;;;13.55;2.40;;;;;;;18.24;100.00;157102.91;5002167;28;20061;-75
2022/07/22 09:12:17;;;;;;;8.52;1.63;;;;;;;18.40;100.00;157144.16;4986545;28;20113;-76
2022/07/22 09:14:57;;;;;;;10.60;2.13;;;;;;;19.10;96.97;157319.53;4974403;28;20510;-76
2022/07/22 09:17:36;;;;;;;10.50;2.00;;;;;;;19.25;90.00;157356.94;4984048;28;20037;-75
2022/07/22 09:20:26;;;;;;;14.13;2.90;;;;;;;19.30;90.04;157369.78;4997297;28;20061;-76
2022/07/22 09:23:10;;;;;;;11.25;1.98;;;;;;;19.38;91.96;157390.47;4977356;28;20042;-77
2022/07/22 09:25:40;;;;;;;10.93;2.00;;;;;;;19.28;94.65;157363.34;4985897;28;20592;-75
2022/07/22 09:28:53;;;;;;;6.30;1.60;;;;;;;18.87;94.48;157261.47;4985865;28;20085;-75
2022/07/22 09:31:31;;;;;;;10.98;1.80;;;;;;;18.53;91.76;157175.06;4984893;28;20075;-75
2022/07/22 09:34:05;;;;;;;10.23;1.85;;;;;;;18.37;93.87;157136.41;4999261;28;20038;-76
2022/07/22 09:36:31;;;;;;;12.80;1.92;;;;;;;18.28;96.50;157113.19;4984485;28;20061;-76
2022/07/22 09:38:57;;;;;;;7.38;1.70;;;;;;;18.35;99.86;157131.25;4982306;28;20053;-77
2022/07/22 09:41:23;;;;;;;12.32;2.03;;;;;;;18.38;92.86;157137.69;4950677;28;20038;-76
2022/07/22 09:43:52;;;;;;;8.63;1.67;;;;;;;18.37;95.26;157135.13;4983249;28;20033;-78
2022/07/22 09:46:34;;;;;;;13.05;1.90;;;;;;;18.31;93.78;157120.94;4975484;28;20038;-77
2022/07/22 09:49:39;;;;;;;11.90;2.25;;;;;;;18.12;91.97;157073.25;4979600;28;20034;-76
2022/07/22 09:52:24;;;;;;;6.95;1.73;;;;;;;18.11;96.36;157069.38;5000198;28;20053;-74
2022/07/22 09:55:06;;;;;;;10.55;2.00;;;;;;;18.13;97.35;157075.81;4984747;28;20427;-75
2022/07/22 09:57:31;;;;;;;8.23;1.80;;;;;;;18.32;100.00;157123.50;5000370;28;20035;-76
2022/07/22 09:59:58;;;;;;;6.70;1.65;;;;;;;18.46;100.00;157158.31;4981401;28;20037;-76
2022/07/22 10:02:44;;;;;;;11.45;2.25;;;;;;;18.45;100.00;157155.72;5002564;28;20077;-75
2022/07/22 10:05:12;;;;;;;9.60;1.80;;;;;;;18.41;98.39;157146.69;4986478;28;20042;-76
2022/07/22 10:07:40;;;;;;;10.65;1.90;;;;;;;18.34;96.24;157128.66;4984681;28;20030;-76
2022/07/22 10:10:09;;;;;;;8.65;1.40;;;;;;;18.35;95.61;157131.25;5001818;28;20038;-76
2022/07/22 10:12:37;;;;;;;16.92;2.47;;;;;;;18.32;92.61;157123.50;4953601;28;20406;-76
2022/07/22 10:15:04;;;;;;;8.32;1.65;;;;;;;18.39;98.33;157140.28;4978199;28;20455;-75
2022/07/22 10:17:30;;;;;;;14.25;2.75;;;;;;;18.25;93.96;157106.78;4960298;28;20062;-76
2022/07/22 10:19:57;;;;;;;9.18;2.58;;;;;;;18.35;91.92;157129.97;4988310;28;20046;-75
2022/07/22 10:22:38;;;;;;;12.15;2.50;;;;;;;18.46;96.52;157159.59;4993364;28;20067;-75
2022/07/22 10:25:05;;;;;;;9.88;2.67;;;;;;;18.65;95.76;157207.28;4987094;28;20049;-75
2022/07/22 10:27:50;;;;;;;10.07;2.80;;;;;;;18.90;89.78;157267.94;4956997;28;20070;-75
2022/07/22 10:30:19;;;;;;;11.40;2.88;;;;;;;18.95;86.35;157280.81;4987974;28;20042;-74
2022/07/22 10:32:45;;;;;;;10.77;3.40;;;;;;;18.80;86.66;157243.41;5005996;28;20042;-75
2022/07/22 10:35:11;;;;;;;10.25;2.72;;;;;;;18.64;84.12;157204.69;4991895;28;20038;-75
2022/07/22 10:37:43;;;;;;;11.02;3.20;;;;;;;18.59;97.56;157191.84;4990773;28;20312;-76
2022/07/22 10:40:14;;;;;;;14.20;2.63;;;;;;;18.45;94.16;157157.00;5001679;28;20042;-75
2022/07/22 10:43:08;;;;;;;12.00;2.85;;;;;;;18.36;93.22;157133.81;4964023;28;20049;-75
2022/07/22 10:45:45;;;;;;;8.65;2.22;;;;;;;18.43;91.36;157150.56;4987553;28;20042;-76
2022/07/22 10:48:14;;;;;;;16.35;2.40;;;;;;;18.72;96.64;157222.75;4999649;28;20034;-75
2022/07/22 10:50:42;;;;;;;7.25;1.70;;;;;;;18.83;92.81;157251.16;4991217;28;20037;-76
2022/07/22 10:53:15;;;;;;;7.53;1.70;;;;;;;18.99;89.95;157291.16;4989536;28;20038;-75
2022/07/22 10:55:59;;;;;;;6.07;1.42;;;;;;;19.12;89.12;157324.69;4951409;28;20113;-77
2022/07/22 10:58:33;;;;;;;7.13;1.48;;;;;;;19.28;87.53;157364.63;5008901;28;20072;-75
2022/07/22 11:01:01;;;;;;;9.23;1.60;;;;;;;19.47;88.88;157411.06;4987465;28;20515;-77
2022/07/22 11:03:30;;;;;;;11.18;2.03;;;;;;;19.52;82.53;157425.25;4991637;28;20045;-76
2022/07/22 11:06:12;;;;;;;7.63;1.63;;;;;;;19.59;86.49;157443.31;5003348;28;20594;-75
2022/07/22 11:08:38;;;;;;;6.30;1.52;;;;;;;19.88;81.23;157515.59;5004463;28;20555;-76
2022/07/22 11:11:04;;;;;;;8.25;1.85;;;;;;;20.12;78.18;157576.25;5004929;28;20145;-76
2022/07/22 11:13:37;;;;;;;6.43;1.63;;;;;;;20.19;76.67;157594.31;4987803;28;20038;-75
2022/07/22 11:16:17;;;;;;;6.45;2.00;;;;;;;20.21;82.64;157598.13;4983470;28;20034;-77
2022/07/22 11:19:07;;;;;;;7.97;1.90;;;;;;;20.33;81.04;157627.84;5005102;28;20173;-75
2022/07/22 11:21:34;;;;;;;9.30;1.67;;;;;;;20.28;78.84;157616.22;4975536;28;20046;-76